createdAt,value
2023-05-05T00:00:00.684Z,42.34
2023-05-05T00:03:02.852Z,41.36
2023-05-05T00:06:05.669Z,41.67
2023-05-05T00:09:07.783Z,41.51
2023-05-05T00:12:09.680Z,42.37
2023-05-05T00:15:11.642Z,43.03
2023-05-05T00:18:14.924Z,44.01
2023-05-05T00:21:16.973Z,44.70
2023-05-05T00:24:18.991Z,42.22
2023-05-05T00:27:20.969Z,42.38
2023-05-05T00:30:23.191Z,43.98
2023-05-05T00:33:25.809Z,47.23
2023-05-05T00:36:28.761Z,45.12
2023-05-05T00:39:30.787Z,46.77
2023-05-05T00:42:40.444Z,46.89
2023-05-05T00:45:44.264Z,47.09
2023-05-05T00:48:46.219Z,45.52
2023-05-05T00:51:48.180Z,43.36
2023-05-05T00:54:50.375Z,43.61
2023-05-05T00:57:52.359Z,43.67
2023-05-05T01:00:54.306Z,43.38
2023-05-05T01:03:56.265Z,43.22
2023-05-05T01:07:13.436Z,46.07
2023-05-05T01:10:21.950Z,45.94
2023-05-05T01:13:30.279Z,44.01
2023-05-05T01:16:33.405Z,45.51
2023-05-05T01:19:55.649Z,44.73
2023-05-05T01:22:58.791Z,44.05
2023-05-05T01:26:21.477Z,44.58
2023-05-05T01:29:29.229Z,45.27
2023-05-05T01:32:36.255Z,45.33
2023-05-05T01:35:41.862Z,44.83
2023-05-05T01:38:44.074Z,44.80
2023-05-05T01:41:47.329Z,44.83
2023-05-05T01:44:49.268Z,45.11
2023-05-05T01:47:51.404Z,45.05
2023-05-05T01:50:53.479Z,45.62
2023-05-05T01:53:57.195Z,45.80
2023-05-05T01:56:59.152Z,45.54
2023-05-05T02:00:01.771Z,45.21
2023-05-05T02:03:04.512Z,46.23
2023-05-05T02:06:06.556Z,46.26
2023-05-05T02:09:09.799Z,46.19
2023-05-05T02:12:11.788Z,47.83
2023-05-05T02:15:14.514Z,48.91
2023-05-05T02:18:17.020Z,48.93
2023-05-05T02:21:20.164Z,50.05
2023-05-05T02:24:22.025Z,50.24
2023-05-05T02:27:24.010Z,47.50
2023-05-05T02:30:25.908Z,46.85
2023-05-05T02:33:28.318Z,47.03
2023-05-05T02:36:30.242Z,46.60
2023-05-05T02:39:33.319Z,47.60
2023-05-05T02:42:36.228Z,49.09
2023-05-05T02:45:38.187Z,49.69
2023-05-05T02:48:40.060Z,47.85
2023-05-05T02:51:42.632Z,49.34
2023-05-05T02:54:44.567Z,48.23
2023-05-05T02:58:06.892Z,49.19
2023-05-05T03:01:27.784Z,48.75
2023-05-05T03:04:32.065Z,47.52
2023-05-05T03:07:47.941Z,47.91
2023-05-05T03:11:08.473Z,49.84
2023-05-05T03:14:12.142Z,50.90
2023-05-05T03:17:14.073Z,50.25
2023-05-05T03:20:16.049Z,50.68
2023-05-05T03:23:21.105Z,50.21
2023-05-05T03:26:23.160Z,51.81
2023-05-05T03:29:25.534Z,52.56
2023-05-05T03:32:27.690Z,51.05
2023-05-05T03:35:29.674Z,49.96
2023-05-05T03:38:31.876Z,52.75
2023-05-05T03:41:33.808Z,51.92
2023-05-05T03:44:35.847Z,53.00
2023-05-05T03:47:37.755Z,54.81
2023-05-05T03:50:39.734Z,53.62
2023-05-05T03:53:41.946Z,54.03
2023-05-05T03:56:43.928Z,53.72
2023-05-05T03:59:46.000Z,52.97
2023-05-05T04:02:48.086Z,51.15
2023-05-05T04:05:49.998Z,52.08
2023-05-05T04:08:51.974Z,50.57
2023-05-05T04:11:53.820Z,51.94
2023-05-05T04:14:55.784Z,52.15
2023-05-05T04:17:57.748Z,55.48
2023-05-05T04:20:59.802Z,53.75
2023-05-05T04:24:01.892Z,51.58
2023-05-05T04:27:03.842Z,51.74
2023-05-05T04:30:07.035Z,51.77
2023-05-05T04:33:09.447Z,52.84
2023-05-05T04:36:11.801Z,50.44
2023-05-05T04:39:13.766Z,48.93
2023-05-05T04:42:15.978Z,52.78
2023-05-05T04:45:17.801Z,50.37
2023-05-05T04:48:21.024Z,48.81
2023-05-05T04:51:22.920Z,48.11
2023-05-05T04:54:24.856Z,48.49
2023-05-05T04:57:26.812Z,47.32
2023-05-05T05:00:28.723Z,45.87
2023-05-05T05:03:32.018Z,48.31
2023-05-05T05:06:34.414Z,46.36
2023-05-05T05:09:36.243Z,44.34
2023-05-05T05:12:38.370Z,44.22
2023-05-05T05:15:40.811Z,43.73
2023-05-05T05:18:42.949Z,43.50
2023-05-05T05:21:44.978Z,40.42
2023-05-05T05:24:47.001Z,40.86
2023-05-05T05:28:02.323Z,37.72
2023-05-05T05:31:11.153Z,37.78
2023-05-05T05:34:13.259Z,40.37
2023-05-05T05:37:15.091Z,37.19
2023-05-05T05:40:17.057Z,36.32
2023-05-05T05:43:18.999Z,37.10
2023-05-05T05:46:21.453Z,37.36
2023-05-05T05:49:23.551Z,35.86
2023-05-05T05:52:25.592Z,35.12
2023-05-05T05:55:27.543Z,33.42
2023-05-05T05:58:29.448Z,32.50
2023-05-05T06:01:31.364Z,35.56
2023-05-05T06:04:33.436Z,32.66
2023-05-05T06:07:35.361Z,31.32
2023-05-05T06:10:37.273Z,33.61
2023-05-05T06:13:39.298Z,33.03
2023-05-05T06:16:41.308Z,34.65
2023-05-05T06:19:43.475Z,36.15
2023-05-05T06:22:45.417Z,36.37
2023-05-05T06:25:47.723Z,35.50
2023-05-05T06:28:49.653Z,33.57
2023-05-05T06:31:51.938Z,31.87
2023-05-05T06:34:53.940Z,32.83
2023-05-05T06:37:55.910Z,32.29
2023-05-05T06:41:00.985Z,34.04
2023-05-05T06:44:02.972Z,33.48
2023-05-05T06:47:04.933Z,31.85
2023-05-05T06:50:07.918Z,28.70
2023-05-05T06:53:10.125Z,29.90
2023-05-05T06:56:12.101Z,27.13
2023-05-05T06:59:13.975Z,26.43
2023-05-05T07:02:17.252Z,26.60
2023-05-05T07:05:19.284Z,27.89
2023-05-05T07:08:21.292Z,27.01
2023-05-05T07:11:23.301Z,29.60
2023-05-05T07:14:25.225Z,28.35
2023-05-05T07:17:27.510Z,29.73
2023-05-05T07:20:29.684Z,27.37
2023-05-05T07:23:31.701Z,28.98
2023-05-05T07:26:33.640Z,26.78
2023-05-05T07:29:36.033Z,25.22
2023-05-05T07:32:37.924Z,25.26
2023-05-05T07:35:40.001Z,26.96
2023-05-05T07:38:41.926Z,29.33
2023-05-05T07:41:44.336Z,30.19
2023-05-05T07:44:46.770Z,29.65
2023-05-05T07:47:48.915Z,25.14
2023-05-05T07:50:52.572Z,25.51
2023-05-05T07:53:55.212Z,27.46
2023-05-05T07:56:57.520Z,25.10
2023-05-05T07:59:59.814Z,27.19
2023-05-05T08:03:01.893Z,28.12
2023-05-05T08:06:10.965Z,25.69
2023-05-05T08:09:13.162Z,25.87
2023-05-05T08:12:17.976Z,24.70
2023-05-05T08:15:20.100Z,23.86
2023-05-05T08:18:22.181Z,25.12
2023-05-05T08:21:24.108Z,26.93
2023-05-05T08:24:26.039Z,27.15
2023-05-05T08:27:27.874Z,24.35
2023-05-05T08:30:32.444Z,23.58
2023-05-05T08:33:34.388Z,22.03
2023-05-05T08:36:36.740Z,25.20
2023-05-05T08:39:38.859Z,23.58
2023-05-05T08:42:41.709Z,26.66
2023-05-05T08:45:43.810Z,23.85
2023-05-05T08:48:46.211Z,26.00
2023-05-05T08:51:48.528Z,24.60
2023-05-05T08:54:52.004Z,23.13
2023-05-05T08:57:57.822Z,21.80
2023-05-05T09:01:01.832Z,21.03
2023-05-05T09:04:04.493Z,26.13
2023-05-05T09:07:06.423Z,25.00
2023-05-05T09:10:08.986Z,20.63
2023-05-05T09:13:11.201Z,21.56
2023-05-05T09:16:32.657Z,20.61
2023-05-05T09:19:34.522Z,23.28
2023-05-05T09:22:36.834Z,23.24
2023-05-05T09:25:39.359Z,23.50
2023-05-05T09:28:42.095Z,23.12
2023-05-05T09:31:43.996Z,23.29
2023-05-05T09:34:56.792Z,21.20
2023-05-05T09:37:58.967Z,20.66
2023-05-05T09:41:00.832Z,18.88
2023-05-05T09:44:02.731Z,19.17
2023-05-05T09:47:09.386Z,19.01
2023-05-05T09:50:16.416Z,21.22
2023-05-05T09:53:18.526Z,22.98
2023-05-05T09:56:20.896Z,23.29
2023-05-05T09:59:23.270Z,22.91
2023-05-05T10:02:35.213Z,21.73
2023-05-05T10:05:46.828Z,20.61
2023-05-05T10:08:51.206Z,23.02
2023-05-05T10:11:53.466Z,22.94
2023-05-05T10:14:55.970Z,21.46
2023-05-05T10:18:06.806Z,20.44
2023-05-05T10:21:09.872Z,19.57
2023-05-05T10:24:12.462Z,21.21
2023-05-05T10:27:19.887Z,19.35
2023-05-05T10:30:28.615Z,21.74
2023-05-05T10:33:40.435Z,21.87
2023-05-05T10:36:42.972Z,24.01
2023-05-05T10:39:45.143Z,21.41
2023-05-05T10:42:48.243Z,20.59
2023-05-05T10:45:50.294Z,22.12
2023-05-05T10:49:04.592Z,23.59
2023-05-05T10:52:19.174Z,22.74
2023-05-05T10:55:28.576Z,22.50
2023-05-05T10:58:47.059Z,24.47
2023-05-05T11:01:57.952Z,23.82
2023-05-05T11:05:14.496Z,23.96
2023-05-05T11:08:26.569Z,23.46
2023-05-05T11:11:48.295Z,20.62
2023-05-05T11:15:08.967Z,18.57
2023-05-05T11:18:28.447Z,16.87
2023-05-05T11:21:30.315Z,17.13
2023-05-05T11:24:32.293Z,19.47
2023-05-05T11:28:04.218Z,18.83
2023-05-05T11:31:06.366Z,18.68
2023-05-05T11:34:23.943Z,17.50
2023-05-05T11:37:27.153Z,17.77
2023-05-05T11:40:29.569Z,18.62
2023-05-05T11:43:31.718Z,17.17
2023-05-05T11:46:33.715Z,14.62
2023-05-05T11:49:36.399Z,15.88
2023-05-05T11:52:38.869Z,16.74
2023-05-05T11:55:43.264Z,14.86
2023-05-05T11:58:45.716Z,15.07
2023-05-05T12:01:47.684Z,16.01
2023-05-05T12:04:50.240Z,17.47
2023-05-05T12:07:56.518Z,15.83
2023-05-05T12:11:11.180Z,18.94
2023-05-05T12:14:13.475Z,21.68
2023-05-05T12:17:15.470Z,19.39
2023-05-05T12:20:17.320Z,17.25
2023-05-05T12:23:19.266Z,17.70
2023-05-05T12:26:28.225Z,19.00
2023-05-05T12:29:30.112Z,15.64
2023-05-05T12:32:32.818Z,15.24
2023-05-05T12:35:34.911Z,16.90
2023-05-05T12:38:36.862Z,20.52
2023-05-05T12:41:38.832Z,20.52
2023-05-05T12:44:40.980Z,22.08
2023-05-05T12:47:44.758Z,21.40
2023-05-05T12:50:46.808Z,21.27
2023-05-05T12:53:52.475Z,21.95
2023-05-05T12:56:54.387Z,22.74
2023-05-05T12:59:56.991Z,22.98
2023-05-05T13:02:59.307Z,21.94
2023-05-05T13:06:01.682Z,22.69
2023-05-05T13:09:04.284Z,23.22
2023-05-05T13:12:08.373Z,24.92
2023-05-05T13:15:10.921Z,25.51
2023-05-05T13:18:13.005Z,24.63
2023-05-05T13:21:15.139Z,24.85
2023-05-05T13:27:22.041Z,23.24
2023-05-05T13:30:23.991Z,23.99
2023-05-05T13:33:26.288Z,23.31
2023-05-05T13:36:28.211Z,25.35
2023-05-05T13:39:30.139Z,25.16
2023-05-05T13:42:32.091Z,24.20
2023-05-05T13:45:34.049Z,23.25
2023-05-05T13:48:36.262Z,23.93
2023-05-05T13:51:39.000Z,24.94
2023-05-05T13:54:40.922Z,24.72
2023-05-05T13:57:43.261Z,24.14
2023-05-05T14:00:45.297Z,24.65
2023-05-05T14:03:49.545Z,24.56
2023-05-05T14:06:51.599Z,23.26
2023-05-05T14:09:53.843Z,24.24
2023-05-05T14:12:55.740Z,23.27
2023-05-05T14:15:58.525Z,22.73
2023-05-05T14:19:00.506Z,23.99
2023-05-05T14:22:02.400Z,23.55
2023-05-05T14:25:04.496Z,24.15
2023-05-05T14:28:06.497Z,22.70
2023-05-05T14:31:08.684Z,23.12
2023-05-05T14:34:10.560Z,25.00
2023-05-05T14:37:12.591Z,25.94
2023-05-05T14:40:14.504Z,25.79
2023-05-05T14:43:16.432Z,24.27
2023-05-05T14:46:18.989Z,24.18
2023-05-05T14:49:21.055Z,24.41
2023-05-05T14:52:22.928Z,24.90
2023-05-05T14:55:25.172Z,25.52
2023-05-05T14:58:27.190Z,23.83
2023-05-05T15:01:29.508Z,25.00
2023-05-05T15:04:31.508Z,23.40
2023-05-05T15:07:33.710Z,24.23
2023-05-05T15:10:35.560Z,25.10
2023-05-05T15:13:40.179Z,26.09
2023-05-05T15:16:42.106Z,25.70
2023-05-05T15:19:44.004Z,24.16
2023-05-05T15:22:47.410Z,25.08
2023-05-05T15:25:50.034Z,25.26
2023-05-05T15:28:52.801Z,25.46
2023-05-05T15:31:54.750Z,24.49
2023-05-05T15:34:56.738Z,24.13
2023-05-05T15:37:58.601Z,24.82
2023-05-05T15:41:00.601Z,24.99
2023-05-05T15:44:04.727Z,24.02
2023-05-05T15:47:06.911Z,24.86
2023-05-05T15:50:09.181Z,25.43
2023-05-05T15:53:11.084Z,24.49
2023-05-05T15:56:13.058Z,25.69
2023-05-05T15:59:15.148Z,25.75
2023-05-05T16:02:17.469Z,25.69
2023-05-05T16:05:21.422Z,25.47
2023-05-05T16:08:24.866Z,26.66
2023-05-05T16:11:27.164Z,25.31
2023-05-05T16:14:29.295Z,24.58
2023-05-05T16:17:31.402Z,25.40
2023-05-05T16:20:33.430Z,25.26
2023-05-05T16:23:35.493Z,25.50
2023-05-05T16:26:37.473Z,26.22
2023-05-05T16:29:39.548Z,25.23
2023-05-05T16:32:42.259Z,26.71
2023-05-05T16:35:45.690Z,26.23
2023-05-05T16:38:48.021Z,26.14
2023-05-05T16:41:50.232Z,26.38
2023-05-05T16:44:52.264Z,24.64
2023-05-05T16:47:55.495Z,25.11
2023-05-05T16:50:58.044Z,24.65
2023-05-05T16:54:00.177Z,24.73
2023-05-05T16:57:03.720Z,24.71
2023-05-05T17:00:06.596Z,24.84
2023-05-05T17:03:08.502Z,24.46
2023-05-05T17:06:12.494Z,24.79
2023-05-05T17:09:14.574Z,25.40
2023-05-05T17:12:16.443Z,24.95
2023-05-05T17:15:18.494Z,26.18
2023-05-05T17:18:23.006Z,25.55
2023-05-05T17:21:24.988Z,25.75
2023-05-05T17:24:26.870Z,26.78
2023-05-05T17:27:28.898Z,25.93
2023-05-05T17:30:30.946Z,26.69
2023-05-05T17:33:32.810Z,25.84
2023-05-05T17:36:35.488Z,25.27
2023-05-05T17:39:37.343Z,25.66
2023-05-05T17:42:39.189Z,25.48
2023-05-05T17:45:42.326Z,26.29
2023-05-05T17:48:44.513Z,25.98
2023-05-05T17:51:46.362Z,26.33
2023-05-05T17:54:49.345Z,26.17
2023-05-05T17:57:51.458Z,26.37
2023-05-05T18:00:53.400Z,27.18
2023-05-05T18:03:55.490Z,27.94
2023-05-05T18:06:57.392Z,27.84
2023-05-05T18:09:59.279Z,28.72
2023-05-05T18:13:01.593Z,26.73
2023-05-05T18:16:03.874Z,26.97
2023-05-05T18:19:06.132Z,27.26
2023-05-05T18:22:08.071Z,27.24
2023-05-05T18:25:10.316Z,28.41
2023-05-05T18:28:12.529Z,28.77
2023-05-05T18:31:14.517Z,28.71
2023-05-05T18:34:16.953Z,28.91
2023-05-05T18:37:19.081Z,28.52
2023-05-05T18:40:21.724Z,28.95
2023-05-05T18:43:23.542Z,29.34
2023-05-05T18:46:25.403Z,30.04
2023-05-05T18:49:30.310Z,30.37
2023-05-05T18:52:33.322Z,30.82
2023-05-05T18:55:35.291Z,31.46
2023-05-05T18:58:37.176Z,31.48
2023-05-05T19:01:39.026Z,31.66
2023-05-05T19:04:41.680Z,32.00
2023-05-05T19:07:43.650Z,32.68
2023-05-05T19:10:45.917Z,32.80
2023-05-05T19:13:47.775Z,33.98
2023-05-05T19:16:49.735Z,34.20
2023-05-05T19:19:51.763Z,33.12
2023-05-05T19:22:53.784Z,35.58
2023-05-05T19:25:55.864Z,35.98
2023-05-05T19:28:57.772Z,36.81
2023-05-05T19:31:59.787Z,37.27
2023-05-05T19:35:01.943Z,35.91
2023-05-05T19:38:03.865Z,36.57
2023-05-05T19:41:05.713Z,36.50
2023-05-05T19:44:07.556Z,38.19
2023-05-05T19:47:10.948Z,37.50
2023-05-05T19:50:15.421Z,38.14
2023-05-05T19:53:17.764Z,37.93
2023-05-05T19:56:19.597Z,38.13
2023-05-05T19:59:21.519Z,38.38
2023-05-05T20:02:26.505Z,38.68
2023-05-05T20:05:28.528Z,39.74
2023-05-05T20:08:30.647Z,39.21
2023-05-05T20:11:32.626Z,39.87
2023-05-05T20:14:34.757Z,40.15
2023-05-05T20:17:36.904Z,40.32
2023-05-05T20:20:38.964Z,40.93
2023-05-05T20:23:42.829Z,40.65
2023-05-05T20:26:47.015Z,40.61
2023-05-05T20:29:48.854Z,41.08
2023-05-05T20:32:50.984Z,40.86
2023-05-05T20:35:52.843Z,41.77
2023-05-05T20:38:54.961Z,40.82
2023-05-05T20:41:56.927Z,40.70
2023-05-05T20:44:59.809Z,39.90
2023-05-05T20:48:02.122Z,41.10
2023-05-05T20:51:04.566Z,41.68
2023-05-05T20:54:06.490Z,41.06
2023-05-05T20:57:08.538Z,41.04
2023-05-05T21:00:10.834Z,43.37
2023-05-05T21:03:13.111Z,44.42
2023-05-05T21:06:15.090Z,44.18
2023-05-05T21:09:17.233Z,42.79
2023-05-05T21:12:19.121Z,41.88
2023-05-05T21:15:21.101Z,42.87
2023-05-05T21:18:25.812Z,42.86
2023-05-05T21:21:27.769Z,42.72
2023-05-05T21:24:29.678Z,41.77
2023-05-05T21:27:31.990Z,43.18
2023-05-05T21:30:33.852Z,42.22
2023-05-05T21:33:35.896Z,42.86
2023-05-05T21:36:38.752Z,45.57
2023-05-05T21:39:41.741Z,46.54
2023-05-05T21:42:43.756Z,46.51
2023-05-05T21:45:45.803Z,46.72
2023-05-05T21:48:47.979Z,47.42
2023-05-05T21:51:50.149Z,46.63
2023-05-05T21:54:52.015Z,47.47
2023-05-05T21:57:53.896Z,47.11
2023-05-05T22:00:55.938Z,46.11
2023-05-05T22:03:58.052Z,45.79
2023-05-05T22:07:00.068Z,47.26
2023-05-05T22:10:03.709Z,48.61
2023-05-05T22:13:05.665Z,48.68
2023-05-05T22:16:08.115Z,48.89
2023-05-05T22:19:09.999Z,47.99
2023-05-05T22:22:11.947Z,48.68
2023-05-05T22:25:13.781Z,49.36
2023-05-05T22:28:15.675Z,47.71
2023-05-05T22:31:17.520Z,47.60
2023-05-05T22:34:22.845Z,47.82
2023-05-05T22:37:25.462Z,47.94
2023-05-05T22:40:28.741Z,49.74
2023-05-05T22:43:30.590Z,48.13
2023-05-05T22:46:32.800Z,47.92
2023-05-05T22:49:35.160Z,48.92
2023-05-05T22:52:37.443Z,48.11
2023-05-05T22:55:39.224Z,49.06
2023-05-05T22:58:41.299Z,49.32
2023-05-05T23:01:43.216Z,50.65
2023-05-05T23:04:47.720Z,50.97
2023-05-05T23:07:49.748Z,52.29
2023-05-05T23:10:51.741Z,52.14
2023-05-05T23:13:56.372Z,51.65
2023-05-05T23:16:58.438Z,54.14
2023-05-05T23:20:00.520Z,55.15
2023-05-05T23:23:02.538Z,52.31
2023-05-05T23:26:04.581Z,51.78
2023-05-05T23:29:06.462Z,51.24
2023-05-05T23:32:08.322Z,50.70
2023-05-05T23:35:11.187Z,50.32
2023-05-05T23:38:13.366Z,52.70
2023-05-05T23:41:15.248Z,54.44
2023-05-05T23:44:17.107Z,54.83
2023-05-05T23:47:19.066Z,55.72
2023-05-05T23:50:21.057Z,54.84
2023-05-05T23:53:23.022Z,54.41
2023-05-05T23:56:24.890Z,52.31
2023-05-05T23:59:27.140Z,51.14
